Time;durP1;ratioP1;P1;durP2;ratioP2;P2;SDS_P1;SDS_P2;PMS_P1;PMS_P2;Temp;Humidity;BMP_temperature;BMP_pressure;BME280_temperature;BME280_humidity;BME280_pressure;Samples;Min_cycle;Max_cycle;Signal;HPM_P1;HPM_P2
2023/05/24 00:00:01;;;;;;;;;;;;;;;16.91;92.08;99286.00;352376;28;871;-76
2023/05/24 00:00:11;;;;;;;;;;;;;;;16.91;91.93;99286.00;350434;28;1188;-76
2023/05/24 00:00:22;;;;;;;;;;;;;;;16.86;92.37;99293.44;351764;28;1504;-76
2023/05/24 00:00:32;;;;;;;;;;;;;;;16.87;92.42;99289.00;349067;28;1223;-76
2023/05/24 00:00:42;;;;;;;;;;;;;;;16.88;92.22;99285.41;350544;28;1350;-76
2023/05/24 00:00:54;;;;;;;;;;;;;;;16.87;92.30;99289.84;347833;28;804;-76
2023/05/24 00:01:06;;;;;;;;;;;;;;;16.86;92.39;99293.44;347657;28;3414;-76
2023/05/24 00:01:24;;;;;;;;;;;;;;;16.86;92.32;99293.44;349560;28;862;-76
2023/05/24 00:01:36;;;;;;;;;;;;;;;16.86;92.32;99292.59;347577;28;1461;-75
2023/05/24 00:01:47;;;;;;;;;;;;;;;16.85;92.33;99289.13;349203;28;832;-75
2023/05/24 00:01:57;;;;;;;;;;;;;;;16.85;92.53;99291.75;349099;28;1203;-75
2023/05/24 00:02:07;;;;;;;;;;;;;;;16.84;92.35;99284.78;349092;28;1411;-76
2023/05/24 00:02:18;;;;;;;;;;;;;;;16.84;92.30;99283.94;349236;28;836;-76
2023/05/24 00:02:29;;;;;;;;;;;;;;;16.84;92.43;99289.22;349093;28;1711;-76
2023/05/24 00:02:42;;;;;;;;;;;;;;;16.84;92.46;99291.88;351174;28;1203;-76
2023/05/24 00:02:52;;;;;;;;;;;;;;;16.82;92.47;99297.25;346400;28;1357;-76
2023/05/24 00:03:03;;;;;;;;;;;;;;;16.81;92.61;99295.56;346811;28;1067;-76
2023/05/24 00:03:15;;;;;;;;;;;;;;;16.81;92.72;99295.56;348903;28;1621;-76
2023/05/24 00:03:25;;;;;;;;;;;;;;;16.81;92.62;99294.72;347683;28;1265;-77
2023/05/24 00:03:37;;;;;;;;;;;;;;;16.80;92.74;99293.03;347147;28;1213;-77
2023/05/24 00:03:48;;;;;;;;;;;;;;;16.80;92.60;99296.53;348438;28;895;-77
2023/05/24 00:03:59;;;;;;;;;;;;;;;16.80;92.73;99290.41;349075;28;1334;-76
2023/05/24 00:04:09;;;;;;;;;;;;;;;16.80;92.64;99291.25;347797;28;820;-76
2023/05/24 00:04:20;;;;;;;;;;;;;;;16.80;92.71;99288.59;347515;28;1630;-76
2023/05/24 00:04:30;;;;;;;;;;;;;;;16.80;92.85;99288.59;346804;28;816;-76
2023/05/24 00:04:41;;;;;;;;;;;;;;;16.81;92.81;99303.50;346366;28;1314;-76
2023/05/24 00:04:51;;;;;;;;;;;;;;;16.81;92.76;99297.38;346281;28;939;-76
2023/05/24 00:05:01;;;;;;;;;;;;;;;16.81;92.83;99290.28;347035;28;1586;-76
2023/05/24 00:05:15;;;;;;;;;;;;;;;16.80;92.84;99293.88;348235;28;959;-76
2023/05/24 00:05:25;;;;;;;;;;;;;;;16.81;92.81;99294.72;346451;28;848;-76
2023/05/24 00:05:36;;;;;;;;;;;;;;;16.81;92.77;99294.72;341438;28;1244;-76
2023/05/24 00:05:46;;;;;;;;;;;;;;;16.81;92.81;99295.56;340262;28;1259;-76
2023/05/24 00:05:57;;;;;;;;;;;;;;;16.80;92.77;99287.75;343627;28;750;-76
2023/05/24 00:06:07;;;;;;;;;;;;;;;16.80;92.96;99287.75;343690;28;902;-76
2023/05/24 00:06:18;;;;;;;;;;;;;;;16.79;92.91;99294.84;343699;28;1097;-76
2023/05/24 00:06:28;;;;;;;;;;;;;;;16.80;92.82;99293.03;345027;28;1286;-76
2023/05/24 00:06:38;;;;;;;;;;;;;;;16.80;92.77;99293.03;344893;28;1480;-76
2023/05/24 00:06:48;;;;;;;;;;;;;;;16.80;92.88;99293.88;343519;28;1109;-76
2023/05/24 00:07:02;;;;;;;;;;;;;;;16.81;92.83;99289.44;340493;29;1486;-76
2023/05/24 00:07:12;;;;;;;;;;;;;;;16.81;92.84;99295.56;338453;29;833;-76
2023/05/24 00:07:22;;;;;;;;;;;;;;;16.82;92.80;99296.41;338081;29;1357;-76
2023/05/24 00:07:32;;;;;;;;;;;;;;;16.82;92.76;99294.63;338586;28;1191;-76
2023/05/24 00:07:43;;;;;;;;;;;;;;;16.83;92.60;99287.53;339739;29;786;-76
2023/05/24 00:07:53;;;;;;;;;;;;;;;16.83;92.73;99293.66;338620;29;1616;-77
2023/05/24 00:08:03;;;;;;;;;;;;;;;16.83;92.61;99283.09;340075;29;1358;-77
2023/05/24 00:08:15;;;;;;;;;;;;;;;16.84;92.49;99290.06;338347;29;1119;-77
2023/05/24 00:08:25;;;;;;;;;;;;;;;16.84;92.58;99284.78;339492;29;1166;-76
2023/05/24 00:08:35;;;;;;;;;;;;;;;16.86;92.54;99289.97;340357;29;1467;-76
2023/05/24 00:08:46;;;;;;;;;;;;;;;16.86;92.42;99285.53;339832;29;1580;-76
2023/05/24 00:08:56;;;;;;;;;;;;;;;16.87;92.48;99286.38;341105;29;913;-76
2023/05/24 00:09:06;;;;;;;;;;;;;;;16.86;92.38;99288.16;342979;28;1568;-76
2023/05/24 00:09:16;;;;;;;;;;;;;;;16.86;92.42;99282.88;341519;28;1972;-76
2023/05/24 00:09:26;;;;;;;;;;;;;;;16.87;92.42;99289.00;339785;29;873;-76
2023/05/24 00:09:37;;;;;;;;;;;;;;;16.84;92.49;99287.44;339240;28;1850;-76
2023/05/24 00:09:47;;;;;;;;;;;;;;;16.84;92.59;99283.94;337738;29;1981;-76
2023/05/24 00:09:57;;;;;;;;;;;;;;;16.82;92.61;99286.69;337121;29;968;-76
2023/05/24 00:10:08;;;;;;;;;;;;;;;16.81;92.88;99290.28;333983;29;2624;-76
2023/05/24 00:10:18;;;;;;;;;;;;;;;16.80;92.86;99283.31;336247;29;1545;-76
2023/05/24 00:10:28;;;;;;;;;;;;;;;16.81;92.84;99286.81;334580;29;866;-76
2023/05/24 00:10:39;;;;;;;;;;;;;;;16.79;92.85;99284.28;335794;29;1286;-76
2023/05/24 00:10:49;;;;;;;;;;;;;;;16.80;92.85;99285.13;334385;29;1407;-76
2023/05/24 00:10:59;;;;;;;;;;;;;;;16.78;92.80;99279.94;333440;29;1726;-76
2023/05/24 00:11:10;;;;;;;;;;;;;;;16.78;92.92;99285.22;335828;29;889;-76
2023/05/24 00:11:21;;;;;;;;;;;;;;;16.77;93.04;99283.53;334286;29;2072;-76
2023/05/24 00:11:31;;;;;;;;;;;;;;;16.77;92.90;99283.53;332332;29;2315;-76
2023/05/24 00:11:41;;;;;;;;;;;;;;;16.77;93.03;99283.53;331961;29;1449;-76
2023/05/24 00:11:52;;;;;;;;;;;;;;;16.77;93.08;99278.25;332305;29;2391;-76
2023/05/24 00:12:02;;;;;;;;;;;;;;;16.77;93.17;99278.25;332557;29;2579;-76
2023/05/24 00:12:12;;;;;;;;;;;;;;;16.79;92.99;99284.28;333251;29;964;-76
2023/05/24 00:12:22;;;;;;;;;;;;;;;16.80;92.95;99280.66;337679;29;2648;-76
2023/05/24 00:12:33;;;;;;;;;;;;;;;16.81;93.06;99277.06;338105;29;1750;-76
2023/05/24 00:12:43;;;;;;;;;;;;;;;16.82;92.95;99276.13;334472;29;1383;-76
2023/05/24 00:12:53;;;;;;;;;;;;;;;16.82;92.92;99280.56;330565;29;1418;-76
2023/05/24 00:13:03;;;;;;;;;;;;;;;16.83;92.90;99282.25;330440;29;2162;-76
2023/05/24 00:13:14;;;;;;;;;;;;;;;16.83;92.80;99271.69;330415;29;2925;-76
2023/05/24 00:13:24;;;;;;;;;;;;;;;16.83;92.70;99282.25;329318;30;1657;-75
2023/05/24 00:13:34;;;;;;;;;;;;;;;16.82;92.83;99284.06;332548;29;2648;-76
2023/05/24 00:13:45;;;;;;;;;;;;;;;16.82;92.74;99278.75;332560;29;3241;-76
2023/05/24 00:13:55;;;;;;;;;;;;;;;16.82;92.78;99278.75;330820;29;894;-76
2023/05/24 00:14:05;;;;;;;;;;;;;;;16.82;92.71;99280.56;330171;29;3346;-76
2023/05/24 00:14:16;;;;;;;;;;;;;;;16.81;92.65;99278.88;329478;29;3498;-76
2023/05/24 00:14:26;;;;;;;;;;;;;;;16.80;92.51;99283.31;329491;30;1182;-76
2023/05/24 00:14:36;;;;;;;;;;;;;;;16.81;92.59;99276.22;325653;30;3444;-76
2023/05/24 00:14:46;;;;;;;;;;;;;;;16.81;92.52;99282.34;325839;30;2493;-76
2023/05/24 00:14:57;;;;;;;;;;;;;;;16.79;92.59;99284.28;325839;30;994;-76
2023/05/24 00:15:08;;;;;;;;;;;;;;;16.81;92.37;99277.06;323805;30;2863;-76
2023/05/24 00:15:18;;;;;;;;;;;;;;;16.80;92.62;99283.31;323963;30;2746;-76
2023/05/24 00:15:29;;;;;;;;;;;;;;;16.80;92.45;99283.31;324475;30;1529;-76
2023/05/24 00:15:39;;;;;;;;;;;;;;;16.79;92.64;99281.63;321180;30;856;-76
2023/05/24 00:15:49;;;;;;;;;;;;;;;16.77;92.69;99278.25;320154;30;4099;-76
2023/05/24 00:15:59;;;;;;;;;;;;;;;16.78;92.84;99274.66;320390;30;4685;-76
2023/05/24 00:16:10;;;;;;;;;;;;;;;16.77;92.73;99280.88;317535;31;1341;-76
2023/05/24 00:16:20;;;;;;;;;;;;;;;16.76;92.65;99279.19;316643;30;4207;-77
2023/05/24 00:16:30;;;;;;;;;;;;;;;16.77;92.68;99283.53;315305;30;4743;-77
2023/05/24 00:16:41;;;;;;;;;;;;;;;16.76;92.81;99281.84;315259;31;1209;-77
2023/05/24 00:16:51;;;;;;;;;;;;;;;16.77;92.75;99282.69;315309;31;4489;-76
2023/05/24 00:17:01;;;;;;;;;;;;;;;16.77;92.84;99285.34;314169;31;3272;-76
2023/05/24 00:17:11;;;;;;;;;;;;;;;16.75;92.85;99284.59;315256;31;1228;-76
2023/05/24 00:17:21;;;;;;;;;;;;;;;16.75;92.86;99279.31;315848;31;3700;-76
2023/05/24 00:17:33;;;;;;;;;;;;;;;16.75;92.77;99287.25;316567;30;4174;-76
2023/05/24 00:17:43;;;;;;;;;;;;;;;16.72;92.95;99285.66;321148;30;829;-76
2023/05/24 00:17:54;;;;;;;;;;;;;;;16.72;93.16;99290.09;315319;31;775;-76
2023/05/24 00:18:04;;;;;;;;;;;;;;;16.72;93.01;99282.16;312862;31;5881;-76
2023/05/24 00:18:16;;;;;;;;;;;;;;;16.72;93.07;99284.81;312454;31;5513;-76
2023/05/24 00:18:30;;;;;;;;;;;;;;;16.71;93.28;99278.69;315660;31;799;-76
2023/05/24 00:18:45;;;;;;;;;;;;;;;16.71;93.14;99283.97;310911;31;870;-76
2023/05/24 00:18:57;;;;;;;;;;;;;;;16.73;93.26;99283.84;308669;32;828;-76
2023/05/24 00:19:09;;;;;;;;;;;;;;;16.73;93.30;99287.34;304545;32;6350;-76
2023/05/24 00:19:21;;;;;;;;;;;;;;;16.73;93.33;99292.63;303986;32;4790;-76
2023/05/24 00:19:31;;;;;;;;;;;;;;;16.72;93.31;99290.94;303467;32;5253;-76
2023/05/24 00:19:41;;;;;;;;;;;;;;;16.72;93.29;99284.81;302290;32;1312;-77
2023/05/24 00:19:52;;;;;;;;;;;;;;;16.71;93.34;99283.13;298078;32;5968;-76
2023/05/24 00:20:02;;;;;;;;;;;;;;;16.71;93.45;99283.13;295799;33;6805;-76
2023/05/24 00:20:13;;;;;;;;;;;;;;;16.70;93.45;99287.56;295031;33;1483;-76
2023/05/24 00:20:23;;;;;;;;;;;;;;;16.71;93.52;99277.84;291215;33;7489;-76
2023/05/24 00:20:33;;;;;;;;;;;;;;;16.69;93.54;99285.88;290997;33;8198;-76
2023/05/24 00:20:43;;;;;;;;;;;;;;;16.70;93.58;99282.28;289391;34;1410;-76
2023/05/24 00:20:55;;;;;;;;;;;;;;;16.70;93.55;99286.72;286956;34;8758;-76
2023/05/24 00:21:07;;;;;;;;;;;;;;;16.70;93.64;99287.56;288779;34;7940;-76
2023/05/24 00:21:17;;;;;;;;;;;;;;;16.65;93.49;99276.47;287275;34;8001;-76
2023/05/24 00:21:27;;;;;;;;;;;;;;;16.70;93.52;99284.91;287610;34;876;-76
2023/05/24 00:21:37;;;;;;;;;;;;;;;16.71;93.63;99283.13;282484;34;6723;-76
2023/05/24 00:23:44;;;;;;;;;;;;;;;16.65;93.89;99289.69;2503606;27;19948;-75
2023/05/24 00:23:54;;;;;;;;;;;;;;;16.65;93.85;99279.13;353258;28;1364;-75
2023/05/24 00:24:05;;;;;;;;;;;;;;;16.64;93.89;99285.34;351951;28;830;-75
2023/05/24 00:24:16;;;;;;;;;;;;;;;16.65;93.79;99289.69;351996;28;855;-75
2023/05/24 00:24:26;;;;;;;;;;;;;;;16.65;93.73;99287.03;351916;28;799;-75
2023/05/24 00:24:36;;;;;;;;;;;;;;;16.66;93.75;99286.09;350428;28;1400;-75
2023/05/24 00:24:47;;;;;;;;;;;;;;;16.66;93.74;99278.16;349112;28;925;-75
2023/05/24 00:24:57;;;;;;;;;;;;;;;16.67;93.49;99284.28;350523;28;1230;-76
2023/05/24 00:25:07;;;;;;;;;;;;;;;16.67;93.46;99281.66;349136;28;768;-75
2023/05/24 00:25:18;;;;;;;;;;;;;;;16.67;93.49;99289.56;349090;28;1382;-75
2023/05/24 00:25:28;;;;;;;;;;;;;;;16.66;93.65;99285.25;349216;28;875;-75
2023/05/24 00:25:38;;;;;;;;;;;;;;;16.65;93.63;99289.69;350212;28;875;-76
2023/05/24 00:25:48;;;;;;;;;;;;;;;16.65;93.61;99284.41;349127;28;1387;-77
2023/05/24 00:26:00;;;;;;;;;;;;;;;16.65;93.53;99284.41;347777;28;875;-76
2023/05/24 00:26:10;;;;;;;;;;;;;;;16.65;93.55;99281.75;346337;28;1418;-76
2023/05/24 00:26:20;;;;;;;;;;;;;;;16.65;93.71;99289.69;345254;28;1317;-76
2023/05/24 00:26:30;;;;;;;;;;;;;;;16.64;93.81;99282.72;345072;28;800;-76
2023/05/24 00:26:41;;;;;;;;;;;;;;;16.65;93.62;99284.41;346350;28;1017;-76
2023/05/24 00:26:51;;;;;;;;;;;;;;;16.64;93.58;99282.72;347714;28;1274;-76
2023/05/24 00:27:01;;;;;;;;;;;;;;;16.61;93.89;99280.25;350425;28;1009;-76
2023/05/24 00:27:11;;;;;;;;;;;;;;;16.61;93.72;99289.03;349123;28;1298;-76
2023/05/24 00:27:21;;;;;;;;;;;;;;;16.61;93.78;99280.25;347700;28;799;-76
2023/05/24 00:27:32;;;;;;;;;;;;;;;16.60;93.92;99278.56;346318;28;1232;-76
2023/05/24 00:27:42;;;;;;;;;;;;;;;16.58;93.77;99278.66;343755;28;883;-76
2023/05/24 00:27:52;;;;;;;;;;;;;;;16.58;93.85;99283.97;343607;28;1556;-75
2023/05/24 00:28:02;;;;;;;;;;;;;;;16.57;93.81;99282.28;344887;28;1179;-75
2023/05/24 00:28:13;;;;;;;;;;;;;;;16.57;93.76;99278.78;345010;28;931;-75
2023/05/24 00:28:23;;;;;;;;;;;;;;;16.56;93.92;99280.56;342230;28;3807;-75
2023/05/24 00:28:33;;;;;;;;;;;;;;;16.55;93.87;99283.31;342428;28;547;-75
2023/05/24 00:28:44;;;;;;;;;;;;;;;16.55;94.09;99278.88;341571;28;1200;-75
2023/05/24 00:28:54;;;;;;;;;;;;;;;16.55;94.13;99275.41;343602;28;848;-75
2023/05/24 00:29:04;;;;;;;;;;;;;;;16.56;94.06;99277.09;343862;28;797;-75
2023/05/24 00:29:15;;;;;;;;;;;;;;;16.53;93.90;99279.94;343538;28;1341;-75
2023/05/24 00:29:25;;;;;;;;;;;;;;;16.55;94.05;99280.69;343735;28;789;-75
2023/05/24 00:29:35;;;;;;;;;;;;;;;16.55;94.07;99280.69;342937;28;1063;-75
2023/05/24 00:29:45;;;;;;;;;;;;;;;16.53;94.17;99283.44;340945;28;1682;-75
2023/05/24 00:29:56;;;;;;;;;;;;;;;16.54;94.14;99281.63;341594;28;1406;-75
2023/05/24 00:30:06;;;;;;;;;;;;;;;16.53;94.10;99285.22;341595;28;1046;-75
2023/05/24 00:30:16;;;;;;;;;;;;;;;16.55;93.98;99278.03;340310;28;1527;-75
2023/05/24 00:30:27;;;;;;;;;;;;;;;16.54;94.01;99282.47;341633;28;1074;-75
2023/05/24 00:30:37;;;;;;;;;;;;;;;16.55;94.09;99283.31;339407;29;903;-75
2023/05/24 00:30:47;;;;;;;;;;;;;;;16.54;94.07;99284.28;341091;29;876;-76
2023/05/24 00:30:57;;;;;;;;;;;;;;;16.53;94.23;99290.50;341092;29;809;-76
2023/05/24 00:31:07;;;;;;;;;;;;;;;16.53;94.22;99277.31;340864;29;1011;-76
2023/05/24 00:31:18;;;;;;;;;;;;;;;16.53;94.18;99279.94;341410;28;868;-75
2023/05/24 00:31:28;;;;;;;;;;;;;;;16.53;94.28;99285.22;343628;28;1402;-75
2023/05/24 00:31:38;;;;;;;;;;;;;;;16.53;94.22;99283.44;340028;29;1237;-75
2023/05/24 00:31:48;;;;;;;;;;;;;;;16.53;94.14;99282.59;339794;29;1591;-75
2023/05/24 00:31:59;;;;;;;;;;;;;;;16.54;94.13;99281.63;338178;29;1445;-75
2023/05/24 00:32:09;;;;;;;;;;;;;;;16.54;94.14;99281.63;339174;28;1365;-75
2023/05/24 00:32:19;;;;;;;;;;;;;;;16.55;94.21;99278.88;340090;28;1589;-75
2023/05/24 00:32:29;;;;;;;;;;;;;;;16.57;94.17;99287.56;335812;29;1323;-75
2023/05/24 00:32:39;;;;;;;;;;;;;;;16.57;94.14;99282.28;333240;29;1297;-75
2023/05/24 00:32:50;;;;;;;;;;;;;;;16.58;94.22;99283.09;334665;29;1103;-75
2023/05/24 00:33:00;;;;;;;;;;;;;;;16.57;94.12;99279.63;335647;29;1204;-75
2023/05/24 00:33:10;;;;;;;;;;;;;;;16.58;94.18;99283.09;338340;29;1392;-75
2023/05/24 00:33:22;;;;;;;;;;;;;;;16.58;94.02;99289.25;339023;29;907;-75
2023/05/24 00:33:32;;;;;;;;;;;;;;;16.60;94.19;99283.84;339634;29;1355;-75
2023/05/24 00:33:42;;;;;;;;;;;;;;;16.61;93.87;99282.91;337094;29;1353;-75
2023/05/24 00:33:52;;;;;;;;;;;;;;;16.61;94.06;99282.91;337875;29;1801;-75
2023/05/24 00:34:03;;;;;;;;;;;;;;;16.61;93.94;99285.53;338467;29;1790;-75
2023/05/24 00:34:13;;;;;;;;;;;;;;;16.61;94.09;99283.75;337378;29;747;-75
2023/05/24 00:34:23;;;;;;;;;;;;;;;16.61;93.92;99277.63;337960;29;2093;-75
2023/05/24 00:34:33;;;;;;;;;;;;;;;16.61;93.74;99285.53;334849;29;1775;-75
2023/05/24 00:34:44;;;;;;;;;;;;;;;16.61;93.94;99278.47;335903;29;797;-75
2023/05/24 00:34:54;;;;;;;;;;;;;;;16.61;93.70;99289.03;338222;29;1458;-75
2023/05/24 00:35:05;;;;;;;;;;;;;;;16.60;93.52;99281.22;339034;29;856;-75
2023/05/24 00:35:15;;;;;;;;;;;;;;;16.59;93.50;99284.81;336733;29;946;-75
2023/05/24 00:35:25;;;;;;;;;;;;;;;16.59;93.37;99282.16;335894;29;790;-75
2023/05/24 00:35:35;;;;;;;;;;;;;;;16.59;93.38;99279.50;335300;29;1653;-75
2023/05/24 00:35:45;;;;;;;;;;;;;;;16.58;93.43;99281.31;332882;29;1953;-75
2023/05/24 00:35:56;;;;;;;;;;;;;;;16.57;93.14;99284.06;330735;29;869;-75
2023/05/24 00:36:06;;;;;;;;;;;;;;;16.53;93.29;99286.06;329462;29;2298;-75
2023/05/24 00:36:16;;;;;;;;;;;;;;;16.52;93.24;99278.25;327339;29;2583;-75
2023/05/24 00:36:26;;;;;;;;;;;;;;;16.52;93.30;99280.91;329650;30;767;-75
2023/05/24 00:36:37;;;;;;;;;;;;;;;16.51;93.44;99276.56;329829;29;2570;-75
2023/05/24 00:36:47;;;;;;;;;;;;;;;16.50;93.44;99280.16;330111;29;2357;-75
2023/05/24 00:36:57;;;;;;;;;;;;;;;16.50;93.41;99282.81;327525;30;973;-75
2023/05/24 00:37:08;;;;;;;;;;;;;;;16.49;93.51;99279.31;324340;30;1932;-75
2023/05/24 00:37:18;;;;;;;;;;;;;;;16.49;93.50;99279.31;324318;30;1525;-75
2023/05/24 00:37:28;;;;;;;;;;;;;;;16.49;93.43;99279.31;324419;30;2733;-75
2023/05/24 00:37:40;;;;;;;;;;;;;;;16.48;93.38;99275.00;322747;30;1800;-76
2023/05/24 00:37:51;;;;;;;;;;;;;;;16.49;93.37;99270.53;323899;30;2189;-76
2023/05/24 00:38:01;;;;;;;;;;;;;;;16.49;93.38;99273.19;326636;30;2823;-75
2023/05/24 00:38:11;;;;;;;;;;;;;;;16.49;93.37;99279.31;328325;30;780;-76
2023/05/24 00:38:22;;;;;;;;;;;;;;;16.50;93.30;99282.81;325594;30;2932;-76
2023/05/24 00:38:32;;;;;;;;;;;;;;;16.50;93.33;99274.88;321655;30;3551;-76
2023/05/24 00:38:42;;;;;;;;;;;;;;;16.49;93.14;99275.81;321121;30;832;-76
2023/05/24 00:38:53;;;;;;;;;;;;;;;16.51;93.22;99276.56;323175;30;3243;-75
2023/05/24 00:39:03;;;;;;;;;;;;;;;16.50;93.01;99280.16;320476;30;3159;-77
2023/05/24 00:39:13;;;;;;;;;;;;;;;16.51;93.05;99279.22;319858;30;1294;-75
2023/05/24 00:39:23;;;;;;;;;;;;;;;16.50;93.18;99281.00;323703;30;2283;-75
2023/05/24 00:39:34;;;;;;;;;;;;;;;16.51;93.15;99281.84;320612;30;2007;-75
2023/05/24 00:39:44;;;;;;;;;;;;;;;16.50;93.09;99280.16;318781;31;802;-75
2023/05/24 00:39:54;;;;;;;;;;;;;;;16.51;93.15;99276.56;321410;30;2574;-75
2023/05/24 00:40:05;;;;;;;;;;;;;;;16.50;93.09;99285.44;322034;30;3235;-76
2023/05/24 00:40:15;;;;;;;;;;;;;;;16.49;93.01;99283.75;322508;30;4340;-76
2023/05/24 00:40:25;;;;;;;;;;;;;;;16.49;93.11;99281.13;323514;30;797;-76
2023/05/24 00:40:36;;;;;;;;;;;;;;;16.48;93.21;99276.78;319533;30;3976;-75
2023/05/24 00:40:47;;;;;;;;;;;;;;;16.48;93.32;99282.06;319288;30;5052;-75
2023/05/24 00:40:59;;;;;;;;;;;;;;;16.48;93.21;99279.44;320834;30;1286;-75
2023/05/24 00:41:10;;;;;;;;;;;;;;;16.48;93.21;99284.72;318755;31;1409;-75
2023/05/24 00:41:20;;;;;;;;;;;;;;;16.48;93.19;99282.06;315355;31;4352;-75
2023/05/24 00:41:30;;;;;;;;;;;;;;;16.48;92.94;99282.06;312854;31;3233;-76
2023/05/24 00:41:41;;;;;;;;;;;;;;;16.48;93.23;99279.44;309806;31;1294;-76
2023/05/24 00:41:51;;;;;;;;;;;;;;;16.49;93.18;99278.47;310402;31;3248;-76
2023/05/24 00:42:01;;;;;;;;;;;;;;;16.48;93.17;99282.91;309543;31;4471;-76
2023/05/24 00:42:12;;;;;;;;;;;;;;;16.49;93.18;99279.31;306612;32;1205;-76
2023/05/24 00:42:22;;;;;;;;;;;;;;;16.50;92.90;99280.16;306157;32;5225;-76
2023/05/24 00:42:32;;;;;;;;;;;;;;;16.49;93.16;99278.47;305673;32;5911;-76
2023/05/24 00:42:42;;;;;;;;;;;;;;;16.50;93.11;99277.53;301615;32;1804;-75
2023/05/24 00:42:52;;;;;;;;;;;;;;;16.50;93.21;99281.00;304338;32;5620;-75
2023/05/24 00:43:03;;;;;;;;;;;;;;;16.48;93.17;99276.78;301401;32;7403;-75
2023/05/24 00:43:13;;;;;;;;;;;;;;;16.47;93.27;99275.94;300129;32;1327;-75
2023/05/24 00:43:23;;;;;;;;;;;;;;;16.48;93.24;99276.78;298895;32;6189;-75
2023/05/24 00:43:34;;;;;;;;;;;;;;;16.47;93.10;99280.38;295745;33;6792;-75
2023/05/24 00:43:44;;;;;;;;;;;;;;;16.45;93.15;99277.03;294405;33;901;-75
2023/05/24 00:43:55;;;;;;;;;;;;;;;16.46;93.06;99278.72;295272;33;804;-75
2023/05/24 00:44:05;;;;;;;;;;;;;;;16.46;93.05;99276.06;291839;33;5308;-75
2023/05/24 00:44:15;;;;;;;;;;;;;;;16.44;93.00;99281.47;290135;33;6645;-75
2023/05/24 00:44:25;;;;;;;;;;;;;;;16.45;92.97;99277.03;294236;33;743;-75
2023/05/24 00:44:36;;;;;;;;;;;;;;;16.45;92.96;99277.03;291839;33;7533;-75
2023/05/24 00:44:46;;;;;;;;;;;;;;;16.45;93.10;99277.88;286902;34;8365;-75
2023/05/24 00:44:56;;;;;;;;;;;;;;;16.44;93.16;99281.47;284811;34;851;-75
2023/05/24 00:45:07;;;;;;;;;;;;;;;16.46;93.12;99278.72;285730;34;8526;-75
2023/05/24 00:45:17;;;;;;;;;;;;;;;16.44;93.08;99276.19;285721;34;9468;-75
2023/05/24 00:45:27;;;;;;;;;;;;;;;16.45;92.95;99282.31;285491;34;2230;-76
2023/05/24 00:47:07;;;;;;;;;;;;;;;16.42;93.12;99277.25;2496773;27;19928;-76
2023/05/24 00:47:17;;;;;;;;;;;;;;;16.39;93.42;99272.16;354771;27;1084;-76
2023/05/24 00:47:28;;;;;;;;;;;;;;;16.36;93.42;99272.38;354137;27;1484;-76
2023/05/24 00:47:38;;;;;;;;;;;;;;;16.36;93.47;99275.03;351771;28;1245;-76
2023/05/24 00:47:48;;;;;;;;;;;;;;;16.35;93.54;99275.97;350468;28;1336;-76
2023/05/24 00:47:58;;;;;;;;;;;;;;;16.34;93.76;99274.28;350459;28;973;-76
2023/05/24 00:48:09;;;;;;;;;;;;;;;16.35;93.63;99275.97;351297;28;1483;-76
2023/05/24 00:48:21;;;;;;;;;;;;;;;16.35;93.53;99270.69;349134;28;1234;-76
2023/05/24 00:48:31;;;;;;;;;;;;;;;16.36;93.62;99272.38;353225;28;1457;-76
2023/05/24 00:48:42;;;;;;;;;;;;;;;16.37;93.47;99274.06;351886;28;875;-76
2023/05/24 00:48:52;;;;;;;;;;;;;;;16.37;93.52;99274.91;349102;28;1225;-76
2023/05/24 00:49:02;;;;;;;;;;;;;;;16.36;93.33;99269.75;350738;28;1224;-76
2023/05/24 00:49:12;;;;;;;;;;;;;;;16.36;93.32;99273.22;350901;28;1096;-76
2023/05/24 00:49:22;;;;;;;;;;;;;;;16.34;93.29;99274.28;351910;28;1206;-76
2023/05/24 00:49:33;;;;;;;;;;;;;;;16.33;93.32;99277.88;351947;28;795;-76
2023/05/24 00:49:43;;;;;;;;;;;;;;;16.34;93.31;99269.84;350213;28;1153;-76
2023/05/24 00:49:53;;;;;;;;;;;;;;;16.35;93.07;99281.25;350112;28;1470;-76
2023/05/24 00:50:04;;;;;;;;;;;;;;;16.35;92.98;99270.69;349456;28;795;-76
2023/05/24 00:50:15;;;;;;;;;;;;;;;16.34;92.86;99269.84;349122;28;1238;-76
2023/05/24 00:50:26;;;;;;;;;;;;;;;16.35;92.94;99275.97;347820;28;841;-76
2023/05/24 00:50:39;;;;;;;;;;;;;;;16.35;92.78;99276.81;349008;28;1175;-76
2023/05/24 00:50:49;;;;;;;;;;;;;;;16.36;92.81;99273.22;348671;28;1432;-76
2023/05/24 00:50:59;;;;;;;;;;;;;;;16.35;92.82;99271.53;348970;28;939;-76
2023/05/24 00:51:10;;;;;;;;;;;;;;;16.36;92.70;99278.50;350121;28;1195;-76
2023/05/24 00:51:20;;;;;;;;;;;;;;;16.36;92.57;99272.38;351153;28;1278;-76
2023/05/24 00:51:32;;;;;;;;;;;;;;;16.35;92.67;99274.19;351897;28;1004;-76
2023/05/24 00:51:42;;;;;;;;;;;;;;;16.34;92.36;99274.28;350473;28;1525;-76
2023/05/24 00:51:53;;;;;;;;;;;;;;;16.33;92.62;99273.44;349555;28;1461;-76
2023/05/24 00:52:03;;;;;;;;;;;;;;;16.33;92.62;99272.59;350361;28;1194;-76
2023/05/24 00:52:14;;;;;;;;;;;;;;;16.33;92.35;99273.44;349138;28;860;-76
2023/05/24 00:52:24;;;;;;;;;;;;;;;16.32;92.41;99266.47;349284;28;764;-76
2023/05/24 00:52:35;;;;;;;;;;;;;;;16.32;92.41;99270.91;350084;28;1242;-76
2023/05/24 00:52:45;;;;;;;;;;;;;;;16.33;92.42;99268.16;350670;28;879;-76
2023/05/24 00:52:55;;;;;;;;;;;;;;;16.32;92.43;99268.28;350503;28;951;-77
2023/05/24 00:53:05;;;;;;;;;;;;;;;16.32;92.48;99273.56;348050;28;1563;-76
2023/05/24 00:53:16;;;;;;;;;;;;;;;16.30;92.36;99273.66;347475;28;1345;-75
2023/05/24 00:53:26;;;;;;;;;;;;;;;16.30;92.43;99269.22;347728;28;1304;-75
2023/05/24 00:53:36;;;;;;;;;;;;;;;16.30;92.43;99263.94;342133;28;1507;-75
2023/05/24 00:53:47;;;;;;;;;;;;;;;16.30;92.46;99273.66;344377;28;1303;-75
2023/05/24 00:53:57;;;;;;;;;;;;;;;16.30;92.55;99269.22;346236;28;1340;-75
2023/05/24 00:54:08;;;;;;;;;;;;;;;16.30;92.47;99263.94;344915;28;1352;-75
2023/05/24 00:54:19;;;;;;;;;;;;;;;16.31;92.45;99264.78;343638;28;833;-75
2023/05/24 00:54:30;;;;;;;;;;;;;;;16.33;92.62;99267.31;345433;28;863;-75
2023/05/24 00:54:40;;;;;;;;;;;;;;;16.33;92.64;99267.31;343400;28;1489;-75
2023/05/24 00:54:50;;;;;;;;;;;;;;;16.32;92.66;99265.63;346052;28;1635;-75
2023/05/24 00:55:01;;;;;;;;;;;;;;;16.33;92.67;99264.69;346785;28;1422;-75
2023/05/24 00:55:11;;;;;;;;;;;;;;;16.32;92.67;99266.47;346256;28;1207;-75
2023/05/24 00:55:21;;;;;;;;;;;;;;;16.32;92.45;99265.63;342525;28;1345;-75
2023/05/24 00:55:33;;;;;;;;;;;;;;;16.33;92.54;99264.69;339607;28;1261;-75
2023/05/24 00:55:43;;;;;;;;;;;;;;;16.33;92.57;99267.31;336643;29;1482;-75
2023/05/24 00:55:53;;;;;;;;;;;;;;;16.32;92.78;99266.47;334500;29;1215;-75
2023/05/24 00:56:04;;;;;;;;;;;;;;;16.32;92.80;99273.56;335160;29;2840;-75
2023/05/24 00:56:14;;;;;;;;;;;;;;;16.33;92.52;99272.59;336607;29;3071;-75
2023/05/24 00:56:25;;;;;;;;;;;;;;;16.34;92.56;99271.66;336959;29;1371;-75
2023/05/24 00:56:35;;;;;;;;;;;;;;;16.33;92.66;99268.16;337019;29;1286;-75
2023/05/24 00:56:46;;;;;;;;;;;;;;;16.35;92.62;99265.41;334854;29;1614;-75
2023/05/24 00:56:56;;;;;;;;;;;;;;;16.35;92.52;99270.69;334508;29;1321;-75
2023/05/24 00:57:07;;;;;;;;;;;;;;;16.34;92.55;99264.56;333114;29;1443;-75
2023/05/24 00:57:17;;;;;;;;;;;;;;;16.35;92.63;99268.06;329983;29;1885;-76
2023/05/24 00:57:28;;;;;;;;;;;;;;;16.35;92.66;99265.41;332313;29;1919;-76
2023/05/24 00:57:38;;;;;;;;;;;;;;;16.37;92.69;99263.50;334509;29;1288;-76
2023/05/24 00:57:48;;;;;;;;;;;;;;;16.36;92.48;99267.09;336862;29;2126;-76
2023/05/24 00:57:58;;;;;;;;;;;;;;;16.36;92.64;99267.94;335583;29;2177;-76
2023/05/24 00:58:09;;;;;;;;;;;;;;;16.32;92.67;99260.34;332716;29;1194;-76
2023/05/24 00:58:20;;;;;;;;;;;;;;;16.32;92.82;99270.91;329400;29;1648;-76
2023/05/24 00:58:30;;;;;;;;;;;;;;;16.32;92.64;99265.63;329891;29;874;-75
2023/05/24 00:58:41;;;;;;;;;;;;;;;16.29;92.86;99267.53;333254;29;878;-77
2023/05/24 00:58:54;;;;;;;;;;;;;;;16.29;92.83;99262.25;331791;29;1296;-76
2023/05/24 00:59:05;;;;;;;;;;;;;;;16.30;92.77;99260.44;330962;29;1428;-76
2023/05/24 00:59:15;;;;;;;;;;;;;;;16.30;92.41;99263.09;328199;30;2021;-76
2023/05/24 00:59:25;;;;;;;;;;;;;;;16.30;92.61;99258.66;324692;30;863;-76
2023/05/24 00:59:35;;;;;;;;;;;;;;;16.30;92.61;99257.81;325364;30;2432;-76
2023/05/24 00:59:46;;;;;;;;;;;;;;;16.30;92.55;99263.94;323910;30;2710;-75